バンコク/スワンナプーム の空港の天気 - METARとTAF

スワンナプーム国際空港 ( VTBS / BKK ) - タイ サムットプラーカーン県 (バンコク近郊)
飛行場実況気象(Metar)
観測時間04/21 22:00 ICT (04/21 15:00 UTC)
風向・風速南南東 5m/s
視程9000m
天気現象
少しの雲 雲底高度 910m
気温32℃
湿度67%
気圧1005hPa
METARVTBS 211500Z 16010KT 9000 FEW030 32/25 Q1005 NOSIG
過去の天気等 Google飛行場航空写真 Wunderground天気予報

過去48時間のMETAR

飛行場予報(TAF)
発表時間: 4/21 18:00 ICT (4/21 11:00 UTC)
予報対象時間: 21日19時 ICT ~ 23日1時 ICT
風向・風速南南西 5m/s
視程10km以上
少しの雲 雲底高度 760m
22日5時 ICT ~ 22日7時 ICT に徐々に
風向・風速南東 3m/s
22日9時 ICT ~ 22日11時 ICT に徐々に
風向・風速南南西 5m/s
TAF VTBS 211100Z 2112/2218 20010KT 9999 FEW025
BECMG 2122/2124 14005KT
BECMG 2202/2204 20010KT